Portada
METAR-TAF:

METAR-TAF

Aeroports :

Tennant Creek, Austràlia

latitud: 19-38-04S, longitud: 134-11-00E, altitud: 377 m

Observació

L'informe es va fer fa 23 minuts, a les 14:00 UTC
Vent 9 kt del Sud-Est
Temperatura 17°C
Humitat 22%
Pressió 1018 hPa
Visibilitat 10 km o més

METAR: YTNK 141400Z AUTO 13009KT 9999 // NCD 17/M05 Q1018

Hora: 23:53 (14:23 UTC)

Pronòstic

L'informe es va fer fa 1 hora i 15 minuts, a les 13:08 UTC
Pronòstic vàlid del 14 a les 14 UTC al 15 a les 02 UTC
Vent 14 kt del Sud-Est
Visibilitat 10 km o més
sense núvols per sota de 1500 mi sense presència de cumulonimbus.
A partir de les 14 a les 2200 UTC
Vent 17 kt del Sud-Est amb ràfegues de 27 kt
Visibilitat 10 km o més
sense núvols per sota de 1500 mi sense presència de cumulonimbus.

TAF: YTNK 141308Z 1414/1502 13014KT CAVOK FM142200 13017G27KT CAVOK

Observacions i pronòstics meteorològics de més de 4000 aeroports (METAR i TAF).

Les estacions disponibles són els punts grocs i vermells al mapa.

Posi el ratolí al punt desitjat per veure el nom de l'estació.

Feu clic per veure les observacions i els pronòstics meteorològics.

Per canviar el mapa: feu clic els botons verds amb una creu de color negre per apropar; al botó verd amb un guió per allunyar la imatge; o en les fletxes verdes per a mapes adjacents.


METAR-TAF: